Time,TemperatureF,DewpointF,PressureIn,WindDirection,WindDirectionDegrees,WindSpeedMPH,WindSpeedGustMPH,Humidity,HourlyPrecipIn,Conditions,Clouds,dailyrainin,SoftwareType,DateUTC
2013-11-14 07:08:00,25.9,17.5,29.99,West,270,0.0,0.0,70,0.00,,,0.00,WUHU216HW,2013-11-14 12:08:00,
2013-11-14 07:09:00,25.9,17.5,29.99,West,270,0.0,0.0,70,0.00,,,0.00,WUHU216HW,2013-11-14 12:09:00,
2013-11-14 07:10:00,25.9,17.5,29.99,West,270,0.0,0.0,70,0.00,,,0.00,WUHU216HW,2013-11-14 12:10:00,
2013-11-14 07:15:00,25.9,17.5,29.99,West,270,0.0,0.0,70,0.00,,,0.00,WUHU216HW,2013-11-14 12:15:00,
2013-11-14 08:00:00,31.7,21.2,29.90,West,270,0.4,0.4,65,0.00,,,0.00,WUHU216HW,2013-11-14 13:00:00,
2013-11-14 08:05:00,32.0,21.6,29.90,WSW,248,2.2,2.9,65,0.00,,,0.00,WUHU216HW,2013-11-14 13:05:00,
2013-11-14 08:10:00,32.2,21.4,29.90,West,270,4.7,4.7,64,0.00,,,0.00,WUHU216HW,2013-11-14 13:10:00,
2013-11-14 08:15:00,32.4,21.6,29.90,WNW,293,1.6,4.7,64,0.00,,,0.00,WUHU216HW,2013-11-14 13:15:00,
2013-11-14 08:20:00,32.6,21.7,29.90,WNW,293,1.8,4.7,64,0.00,,,0.00,WUHU216HW,2013-11-14 13:20:00,
2013-11-14 08:25:00,32.9,21.7,29.90,West,271,1.8,2.9,63,0.00,,,0.00,WUHU216HW,2013-11-14 13:25:00,
2013-11-14 08:30:00,33.3,22.1,29.90,WSW,248,1.1,2.9,63,0.00,,,0.00,WUHU216HW,2013-11-14 13:30:00,
2013-11-14 08:35:00,33.5,22.1,29.90,North,358,1.2,2.0,63,0.00,,,0.00,WUHU216HW,2013-11-14 13:35:00,
2013-11-14 08:40:00,33.8,22.5,29.90,NW,315,0.7,1.8,63,0.00,,,0.00,WUHU216HW,2013-11-14 13:40:00,
2013-11-14 08:45:00,34.2,22.5,29.90,WNW,289,1.3,2.9,62,0.00,,,0.00,WUHU216HW,2013-11-14 13:45:00,
2013-11-14 08:50:00,34.4,22.7,29.90,WSW,248,1.8,2.9,62,0.00,,,0.00,WUHU216HW,2013-11-14 13:50:00,
2013-11-14 08:55:00,34.9,22.9,29.90,West,264,1.6,2.5,61,0.00,,,0.00,WUHU216HW,2013-11-14 13:55:00,
2013-11-14 09:00:00,35.3,23.2,29.90,WNW,293,2.5,2.5,61,0.00,,,0.00,WUHU216HW,2013-11-14 14:00:00,
2013-11-14 09:05:00,35.6,23.2,29.90,NNE,23,1.1,2.5,60,0.00,,,0.00,WUHU216HW,2013-11-14 14:05:00,
2013-11-14 09:10:00,36.0,23.6,29.90,WNW,293,1.3,2.5,60,0.00,,,0.00,WUHU216HW,2013-11-14 14:10:00,
2013-11-14 09:15:00,36.4,23.9,29.90,WNW,297,0.9,2.9,60,0.00,,,0.00,WUHU216HW,2013-11-14 14:15:00,
2013-11-14 09:20:00,36.7,23.3,29.90,NW,315,1.6,2.9,58,0.00,,,0.00,WUHU216HW,2013-11-14 14:20:00,
2013-11-14 09:25:00,37.1,23.2,29.90,NW,315,2.5,3.6,57,0.00,,,0.00,WUHU216HW,2013-11-14 14:25:00,
2013-11-14 09:30:00,37.4,23.6,29.90,WNW,293,1.1,3.6,57,0.00,,,0.00,WUHU216HW,2013-11-14 14:30:00,
2013-11-14 09:35:00,37.6,22.9,29.90,NW,309,1.2,2.7,55,0.00,,,0.00,WUHU216HW,2013-11-14 14:35:00,
2013-11-14 09:40:00,38.0,23.1,29.90,WSW,248,1.3,2.2,55,0.00,,,0.00,WUHU216HW,2013-11-14 14:40:00,
2013-11-14 09:45:00,38.2,23.8,29.90,WNW,303,1.1,2.2,56,0.00,,,0.00,WUHU216HW,2013-11-14 14:45:00,
2013-11-14 09:47:00,38.3,22.6,29.90,WNW,293,2.5,2.5,53,0.00,,,0.00,WUHU216HW,2013-11-14 14:47:00,
2013-11-14 09:52:00,38.5,23.7,29.90,WNW,303,1.1,2.5,55,0.00,,,0.00,WUHU216HW,2013-11-14 14:52:00,
2013-11-14 09:57:00,38.7,23.4,29.90,NW,315,1.8,3.1,54,0.00,,,0.00,WUHU216HW,2013-11-14 14:57:00,
2013-11-14 10:02:00,39.1,22.9,29.90,West,270,2.2,3.6,52,0.00,,,0.00,WUHU216HW,2013-11-14 15:02:00,
2013-11-14 10:07:00,39.2,23.1,29.90,NE,45,1.8,3.6,52,0.00,,,0.00,WUHU216HW,2013-11-14 15:07:00,
2013-11-14 10:12:00,39.6,23.3,29.90,WSW,248,0.9,2.5,52,0.00,,,0.00,WUHU216HW,2013-11-14 15:12:00,
2013-11-14 10:17:00,40.0,24.1,29.90,WNW,285,1.1,2.5,53,0.00,,,0.00,WUHU216HW,2013-11-14 15:17:00,
2013-11-14 10:22:00,40.3,24.5,29.90,West,279,3.5,4.9,53,0.00,,,0.00,WUHU216HW,2013-11-14 15:22:00,
2013-11-14 10:27:00,40.7,24.3,29.90,NNE,23,0.4,4.9,52,0.00,,,0.00,WUHU216HW,2013-11-14 15:27:00,
2013-11-14 10:32:00,40.9,24.5,29.90,WNW,286,2.3,4.3,52,0.00,,,0.00,WUHU216HW,2013-11-14 15:32:00,
2013-11-14 10:37:00,41.0,24.2,29.90,West,278,3.7,5.4,51,0.00,,,0.00,WUHU216HW,2013-11-14 15:37:00,
2013-11-14 10:42:00,41.2,23.4,29.90,NNW,330,1.3,5.6,49,0.00,,,0.00,WUHU216HW,2013-11-14 15:42:00,
2013-11-14 10:47:00,41.4,24.1,29.90,West,270,2.9,5.6,50,0.00,,,0.00,WUHU216HW,2013-11-14 15:47:00,
2013-11-14 10:52:00,41.6,24.3,29.90,NW,315,2.7,3.4,50,0.00,,,0.00,WUHU216HW,2013-11-14 15:52:00,
2013-11-14 10:57:00,41.8,24.5,29.89,WNW,295,1.8,4.0,50,0.00,,,0.00,WUHU216HW,2013-11-14 15:57:00,
2013-11-14 11:02:00,41.9,23.6,29.89,NE,45,3.6,4.0,48,0.00,,,0.00,WUHU216HW,2013-11-14 16:02:00,
2013-11-14 11:07:00,42.1,24.3,29.89,West,270,1.8,4.0,49,0.00,,,0.00,WUHU216HW,2013-11-14 16:07:00,
2013-11-14 11:12:00,42.5,25.2,29.89,WNW,285,1.9,2.5,50,0.00,,,0.00,WUHU216HW,2013-11-14 16:12:00,
2013-11-14 11:17:00,42.5,25.2,29.89,West,277,1.9,3.4,50,0.00,,,0.00,WUHU216HW,2013-11-14 16:17:00,
2013-11-14 11:22:00,42.8,25.6,29.89,NW,315,2.5,3.4,50,0.00,,,0.00,WUHU216HW,2013-11-14 16:22:00,
2013-11-14 11:27:00,42.8,25.0,29.88,West,278,2.1,5.4,49,0.00,,,0.00,WUHU216HW,2013-11-14 16:27:00,
2013-11-14 11:32:00,43.0,23.1,29.88,North,0,2.5,5.4,45,0.00,,,0.00,WUHU216HW,2013-11-14 16:32:00,
2013-11-14 11:37:00,43.2,24.9,29.88,WNW,293,2.5,3.4,48,0.00,,,0.00,WUHU216HW,2013-11-14 16:37:00,
2013-11-14 11:42:00,43.6,25.1,29.88,West,266,0.6,2.5,48,0.00,,,0.00,WUHU216HW,2013-11-14 16:42:00,
2013-11-14 11:47:00,43.7,25.3,29.88,West,270,2.5,4.7,48,0.00,,,0.00,WUHU216HW,2013-11-14 16:47:00,
2013-11-14 11:52:00,43.7,24.8,29.87,West,271,3.5,4.7,47,0.00,,,0.00,WUHU216HW,2013-11-14 16:52:00,
2013-11-14 11:57:00,43.9,24.9,29.87,WNW,288,1.6,4.5,47,0.00,,,0.00,WUHU216HW,2013-11-14 16:57:00,
2013-11-14 12:02:00,44.1,25.7,29.87,WNW,293,2.2,3.8,48,0.00,,,0.00,WUHU216HW,2013-11-14 17:02:00,
2013-11-14 12:07:00,44.1,25.1,29.87,West,270,3.4,4.5,47,0.00,,,0.00,WUHU216HW,2013-11-14 17:07:00,
2013-11-14 12:12:00,44.3,25.2,29.87,WNW,300,2.0,4.5,47,0.00,,,0.00,WUHU216HW,2013-11-14 17:12:00,
2013-11-14 12:17:00,44.3,25.2,29.87,WNW,285,1.4,3.6,47,0.00,,,0.00,WUHU216HW,2013-11-14 17:17:00,
2013-11-14 12:22:00,44.5,25.4,29.87,West,270,2.5,2.9,47,0.00,,,0.00,WUHU216HW,2013-11-14 17:22:00,
2013-11-14 12:27:00,44.6,25.6,29.87,WNW,287,1.9,3.4,47,0.00,,,0.00,WUHU216HW,2013-11-14 17:27:00,
2013-11-14 12:32:00,44.6,25.0,29.87,West,270,3.4,5.4,46,0.00,,,0.00,WUHU216HW,2013-11-14 17:32:00,
2013-11-14 12:37:00,44.8,24.7,29.87,West,266,3.3,5.4,45,0.00,,,0.00,WUHU216HW,2013-11-14 17:37:00,
2013-11-14 12:42:00,44.8,25.2,29.87,NW,305,1.2,3.6,46,0.00,,,0.00,WUHU216HW,2013-11-14 17:42:00,
2013-11-14 12:47:00,44.8,25.2,29.86,West,270,2.7,2.9,46,0.00,,,0.00,WUHU216HW,2013-11-14 17:47:00,
2013-11-14 12:52:00,44.8,25.2,29.86,WNW,284,2.2,3.4,46,0.00,,,0.00,WUHU216HW,2013-11-14 17:52:00,
2013-11-14 12:57:00,45.2,25.5,29.86,West,270,2.5,3.4,46,0.00,,,0.00,WUHU216HW,2013-11-14 17:57:00,
2013-11-14 13:02:00,45.4,25.7,29.86,West,270,4.0,4.0,46,0.00,,,0.00,WUHU216HW,2013-11-14 18:02:00,
2013-11-14 13:07:00,45.7,24.9,29.86,West,270,1.1,4.0,44,0.00,,,0.00,WUHU216HW,2013-11-14 18:07:00,
2013-11-14 13:12:00,45.7,25.5,29.86,WNW,293,1.8,3.4,45,0.00,,,0.00,WUHU216HW,2013-11-14 18:12:00,
2013-11-14 13:17:00,45.7,25.5,29.86,West,278,2.7,3.6,45,0.00,,,0.00,WUHU216HW,2013-11-14 18:17:00,
2013-11-14 13:21:00,45.7,26.0,29.86,West,265,2.5,4.3,46,0.00,,,0.00,WUHU216HW,2013-11-14 18:21:00,
2013-11-14 13:26:00,45.7,24.9,29.86,WNW,301,1.0,4.3,44,0.00,,,0.00,WUHU216HW,2013-11-14 18:26:00,
2013-11-14 13:32:00,45.9,25.1,29.86,NNW,328,2.1,4.7,44,0.00,,,0.00,WUHU216HW,2013-11-14 18:32:00,
2013-11-14 13:37:00,46.1,25.7,29.86,WNW,297,1.8,4.7,45,0.00,,,0.00,WUHU216HW,2013-11-14 18:37:00,
2013-11-14 13:38:00,46.1,25.2,29.86,West,270,2.7,3.4,44,0.00,,,0.00,WUHU216HW,2013-11-14 18:38:00,
2013-11-14 21:17:00,46.1,25.2,29.86,West,270,2.7,2.7,44,0.00,,,0.00,WUHU216HW,2013-11-15 02:17:00,
2013-11-14 21:22:00,46.1,25.2,29.86,West,270,2.7,2.7,44,0.00,,,0.00,WUHU216HW,2013-11-15 02:22:00,